sensor_id;sensor_type;location;lat;lon;timestamp;temperature;humidity
14154;DHT22;7157;53.144;7.570;2024-01-06T00:01:52;3.03;116.11
14154;DHT22;7157;53.144;7.570;2024-01-06T00:11:55;2.98;116.15
14154;DHT22;7157;53.144;7.570;2024-01-06T00:21:59;2.97;116.27
14154;DHT22;7157;53.144;7.570;2024-01-06T00:32:03;2.90;116.18
14154;DHT22;7157;53.144;7.570;2024-01-06T00:42:07;2.99;116.51
14154;DHT22;7157;53.144;7.570;2024-01-06T00:52:10;3.02;116.09
14154;DHT22;7157;53.144;7.570;2024-01-06T01:02:14;2.96;115.64
14154;DHT22;7157;53.144;7.570;2024-01-06T01:12:17;2.96;115.85
14154;DHT22;7157;53.144;7.570;2024-01-06T01:22:21;2.85;115.45
14154;DHT22;7157;53.144;7.570;2024-01-06T01:32:24;2.83;115.06
14154;DHT22;7157;53.144;7.570;2024-01-06T01:42:28;2.71;114.44
14154;DHT22;7157;53.144;7.570;2024-01-06T01:52:31;2.65;115.54
14154;DHT22;7157;53.144;7.570;2024-01-06T02:02:35;2.56;115.48
14154;DHT22;7157;53.144;7.570;2024-01-06T02:12:39;2.49;115.45
14154;DHT22;7157;53.144;7.570;2024-01-06T02:22:43;2.44;115.10
14154;DHT22;7157;53.144;7.570;2024-01-06T02:32:45;2.43;115.60
14154;DHT22;7157;53.144;7.570;2024-01-06T02:42:50;2.32;115.49
14154;DHT22;7157;53.144;7.570;2024-01-06T02:52:53;2.37;115.03
14154;DHT22;7157;53.144;7.570;2024-01-06T03:02:57;2.36;114.95
14154;DHT22;7157;53.144;7.570;2024-01-06T03:13:00;2.31;114.71
14154;DHT22;7157;53.144;7.570;2024-01-06T03:23:04;2.23;115.00
14154;DHT22;7157;53.144;7.570;2024-01-06T03:33:07;2.20;114.35
14154;DHT22;7157;53.144;7.570;2024-01-06T03:43:11;2.34;114.99
14154;DHT22;7157;53.144;7.570;2024-01-06T03:53:14;2.22;114.06
14154;DHT22;7157;53.144;7.570;2024-01-06T04:03:18;2.13;114.00
14154;DHT22;7157;53.144;7.570;2024-01-06T04:13:21;2.20;114.22
14154;DHT22;7157;53.144;7.570;2024-01-06T04:23:27;2.12;114.46
14154;DHT22;7157;53.144;7.570;2024-01-06T04:33:30;2.22;115.15
14154;DHT22;7157;53.144;7.570;2024-01-06T04:43:35;2.14;114.74
14154;DHT22;7157;53.144;7.570;2024-01-06T04:53:38;2.03;115.03
14154;DHT22;7157;53.144;7.570;2024-01-06T05:03:42;2.07;115.37
14154;DHT22;7157;53.144;7.570;2024-01-06T05:13:45;1.98;115.03
14154;DHT22;7157;53.144;7.570;2024-01-06T05:23:49;1.99;115.06
14154;DHT22;7157;53.144;7.570;2024-01-06T05:33:52;1.92;115.16
14154;DHT22;7157;53.144;7.570;2024-01-06T05:43:56;1.85;115.59
14154;DHT22;7157;53.144;7.570;2024-01-06T05:53:59;1.90;115.88
14154;DHT22;7157;53.144;7.570;2024-01-06T06:04:03;2.01;116.27
14154;DHT22;7157;53.144;7.570;2024-01-06T06:14:06;2.07;115.87
14154;DHT22;7157;53.144;7.570;2024-01-06T06:24:10;2.03;115.75
14154;DHT22;7157;53.144;7.570;2024-01-06T06:34:13;2.07;115.51
14154;DHT22;7157;53.144;7.570;2024-01-06T06:44:18;2.08;115.54
14154;DHT22;7157;53.144;7.570;2024-01-06T06:54:20;1.95;114.91
14154;DHT22;7157;53.144;7.570;2024-01-06T07:04:24;1.98;115.39
14154;DHT22;7157;53.144;7.570;2024-01-06T07:14:28;1.91;114.73
14154;DHT22;7157;53.144;7.570;2024-01-06T07:24:33;1.92;115.05
14154;DHT22;7157;53.144;7.570;2024-01-06T07:34:37;1.99;114.68
14154;DHT22;7157;53.144;7.570;2024-01-06T07:44:42;1.93;113.89
14154;DHT22;7157;53.144;7.570;2024-01-06T07:54:45;1.86;114.00
14154;DHT22;7157;53.144;7.570;2024-01-06T08:04:51;2.01;114.50
14154;DHT22;7157;53.144;7.570;2024-01-06T08:14:55;1.91;114.00
14154;DHT22;7157;53.144;7.570;2024-01-06T08:24:59;2.05;113.09
14154;DHT22;7157;53.144;7.570;2024-01-06T08:35:02;2.05;113.75
14154;DHT22;7157;53.144;7.570;2024-01-06T08:45:07;2.01;113.42
14154;DHT22;7157;53.144;7.570;2024-01-06T08:55:10;2.15;114.44
14154;DHT22;7157;53.144;7.570;2024-01-06T09:05:14;2.21;114.21
14154;DHT22;7157;53.144;7.570;2024-01-06T09:15:17;2.31;114.64
14154;DHT22;7157;53.144;7.570;2024-01-06T09:25:21;2.27;114.57
14154;DHT22;7157;53.144;7.570;2024-01-06T09:35:26;2.46;114.38
14154;DHT22;7157;53.144;7.570;2024-01-06T09:45:30;2.41;114.06
14154;DHT22;7157;53.144;7.570;2024-01-06T09:55:34;2.55;113.98
14154;DHT22;7157;53.144;7.570;2024-01-06T10:05:38;2.62;113.64
14154;DHT22;7157;53.144;7.570;2024-01-06T11:07:07;2.36;112.94
14154;DHT22;7157;53.144;7.570;2024-01-06T11:17:10;2.52;113.42
14154;DHT22;7157;53.144;7.570;2024-01-06T11:27:18;2.38;113.05
14154;DHT22;7157;53.144;7.570;2024-01-06T11:37:34;2.26;112.55
14154;DHT22;7157;53.144;7.570;2024-01-06T11:47:39;2.37;113.19
14154;DHT22;7157;53.144;7.570;2024-01-06T11:57:43;2.50;113.60
14154;DHT22;7157;53.144;7.570;2024-01-06T12:07:54;2.50;113.21
14154;DHT22;7157;53.144;7.570;2024-01-06T12:17:58;2.45;113.40
14154;DHT22;7157;53.144;7.570;2024-01-06T12:28:03;2.42;113.19
14154;DHT22;7157;53.144;7.570;2024-01-06T12:38:06;2.32;112.86
14154;DHT22;7157;53.144;7.570;2024-01-06T12:48:12;2.35;112.76
14154;DHT22;7157;53.144;7.570;2024-01-06T12:58:15;2.34;112.97
14154;DHT22;7157;53.144;7.570;2024-01-06T13:08:19;2.21;112.42
14154;DHT22;7157;53.144;7.570;2024-01-06T13:18:22;2.15;112.61
14154;DHT22;7157;53.144;7.570;2024-01-06T13:28:27;1.98;112.12
14154;DHT22;7157;53.144;7.570;2024-01-06T13:38:30;2.10;112.54
14154;DHT22;7157;53.144;7.570;2024-01-06T13:48:34;2.12;112.45
14154;DHT22;7157;53.144;7.570;2024-01-06T13:58:37;2.08;112.84
14154;DHT22;7157;53.144;7.570;2024-01-06T14:08:41;2.03;113.12
14154;DHT22;7157;53.144;7.570;2024-01-06T14:18:45;1.85;112.34
14154;DHT22;7157;53.144;7.570;2024-01-06T14:28:49;1.82;112.51
14154;DHT22;7157;53.144;7.570;2024-01-06T14:38:52;1.80;113.10
14154;DHT22;7157;53.144;7.570;2024-01-06T14:48:57;1.79;112.61
14154;DHT22;7157;53.144;7.570;2024-01-06T14:58:59;1.82;113.07
14154;DHT22;7157;53.144;7.570;2024-01-06T15:09:04;1.83;113.02
14154;DHT22;7157;53.144;7.570;2024-01-06T15:19:07;1.84;112.64
14154;DHT22;7157;53.144;7.570;2024-01-06T15:29:11;1.83;112.75
14154;DHT22;7157;53.144;7.570;2024-01-06T15:39:14;1.80;113.03
14154;DHT22;7157;53.144;7.570;2024-01-06T15:49:18;1.66;113.34
14154;DHT22;7157;53.144;7.570;2024-01-06T15:59:21;1.70;113.45
14154;DHT22;7157;53.144;7.570;2024-01-06T16:09:26;1.72;113.51
14154;DHT22;7157;53.144;7.570;2024-01-06T16:19:28;1.63;113.90
14154;DHT22;7157;53.144;7.570;2024-01-06T16:29:33;1.60;114.09
14154;DHT22;7157;53.144;7.570;2024-01-06T16:39:36;1.62;114.48
14154;DHT22;7157;53.144;7.570;2024-01-06T16:49:40;1.63;114.83
14154;DHT22;7157;53.144;7.570;2024-01-06T16:59:43;1.47;114.12
14154;DHT22;7157;53.144;7.570;2024-01-06T17:09:50;1.46;114.36
14154;DHT22;7157;53.144;7.570;2024-01-06T17:19:53;1.42;114.66
14154;DHT22;7157;53.144;7.570;2024-01-06T17:29:59;1.39;114.73
14154;DHT22;7157;53.144;7.570;2024-01-06T17:40:02;1.29;114.87
14154;DHT22;7157;53.144;7.570;2024-01-06T17:50:09;1.33;114.99
14154;DHT22;7157;53.144;7.570;2024-01-06T18:00:12;1.26;114.08
14154;DHT22;7157;53.144;7.570;2024-01-06T18:10:17;1.31;114.08
14154;DHT22;7157;53.144;7.570;2024-01-06T18:20:20;1.22;113.39
14154;DHT22;7157;53.144;7.570;2024-01-06T18:30:24;1.35;113.72
14154;DHT22;7157;53.144;7.570;2024-01-06T18:40:27;1.47;113.51
14154;DHT22;7157;53.144;7.570;2024-01-06T18:50:32;1.38;113.09
14154;DHT22;7157;53.144;7.570;2024-01-06T19:00:35;1.27;112.98
14154;DHT22;7157;53.144;7.570;2024-01-06T19:10:39;1.27;113.38
14154;DHT22;7157;53.144;7.570;2024-01-06T19:20:43;1.21;113.07
14154;DHT22;7157;53.144;7.570;2024-01-06T19:30:48;1.24;113.38
14154;DHT22;7157;53.144;7.570;2024-01-06T19:40:52;1.22;113.22
14154;DHT22;7157;53.144;7.570;2024-01-06T19:50:56;1.08;112.71
14154;DHT22;7157;53.144;7.570;2024-01-06T20:00:59;1.18;112.88
14154;DHT22;7157;53.144;7.570;2024-01-06T20:11:03;1.05;111.94
14154;DHT22;7157;53.144;7.570;2024-01-06T20:21:06;1.02;111.57
14154;DHT22;7157;53.144;7.570;2024-01-06T20:31:15;1.06;111.79
14154;DHT22;7157;53.144;7.570;2024-01-06T20:41:20;1.09;111.44
14154;DHT22;7157;53.144;7.570;2024-01-06T20:51:25;1.06;111.00
14154;DHT22;7157;53.144;7.570;2024-01-06T21:01:28;1.21;111.41
14154;DHT22;7157;53.144;7.570;2024-01-06T21:11:32;1.19;110.78
14154;DHT22;7157;53.144;7.570;2024-01-06T21:21:35;1.06;110.17
14154;DHT22;7157;53.144;7.570;2024-01-06T21:31:40;0.99;110.04
14154;DHT22;7157;53.144;7.570;2024-01-06T21:41:43;1.03;110.04
14154;DHT22;7157;53.144;7.570;2024-01-06T21:51:49;1.01;109.27
14154;DHT22;7157;53.144;7.570;2024-01-06T22:01:52;0.92;109.35
14154;DHT22;7157;53.144;7.570;2024-01-06T22:11:56;0.92;109.60
14154;DHT22;7157;53.144;7.570;2024-01-06T22:21:59;1.01;109.54
14154;DHT22;7157;53.144;7.570;2024-01-06T22:32:05;0.98;110.00
14154;DHT22;7157;53.144;7.570;2024-01-06T22:42:08;1.06;109.97
14154;DHT22;7157;53.144;7.570;2024-01-06T22:52:12;1.08;110.16
14154;DHT22;7157;53.144;7.570;2024-01-06T23:02:15;1.04;109.79
14154;DHT22;7157;53.144;7.570;2024-01-06T23:12:19;1.07;109.91
14154;DHT22;7157;53.144;7.570;2024-01-06T23:22:22;1.05;108.79
14154;DHT22;7157;53.144;7.570;2024-01-06T23:32:26;0.95;109.46
14154;DHT22;7157;53.144;7.570;2024-01-06T23:42:29;0.86;109.02
14154;DHT22;7157;53.144;7.570;2024-01-06T23:52:33;0.90;108.89
